createdAt,value
2019-03-03T00:01:48.334Z,44.98
2019-03-03T00:04:20.475Z,45.02
2019-03-03T00:06:52.606Z,45.01
2019-03-03T00:09:24.751Z,45.02
2019-03-03T00:11:56.878Z,45.03
2019-03-03T00:14:29.011Z,45.05
2019-03-03T00:17:01.158Z,45.07
2019-03-03T00:19:33.286Z,45.06
2019-03-03T00:22:05.439Z,45.09
2019-03-03T00:24:37.562Z,45.10
2019-03-03T00:27:09.688Z,45.10
2019-03-03T00:29:41.833Z,45.12
2019-03-03T00:32:13.957Z,45.17
2019-03-03T00:34:46.078Z,45.16
2019-03-03T00:37:18.496Z,45.19
2019-03-03T00:39:50.627Z,45.20
2019-03-03T00:42:22.772Z,45.14
2019-03-03T00:44:54.906Z,45.24
2019-03-03T00:47:27.039Z,45.18
2019-03-03T00:49:59.183Z,45.19
2019-03-03T00:52:31.309Z,45.26
2019-03-03T00:55:04.444Z,45.25
2019-03-03T00:57:36.564Z,45.32
2019-03-03T01:00:08.703Z,45.29
2019-03-03T01:02:40.844Z,45.28
2019-03-03T01:05:12.974Z,45.28
2019-03-03T01:07:45.109Z,45.33
2019-03-03T01:10:17.282Z,45.29
2019-03-03T01:12:49.387Z,45.27
2019-03-03T01:15:21.512Z,45.29
2019-03-03T01:17:54.638Z,45.29
2019-03-03T01:20:26.756Z,45.31
2019-03-03T01:22:58.879Z,45.32
2019-03-03T01:25:31.029Z,45.39
2019-03-03T01:28:03.466Z,45.39
2019-03-03T01:30:35.588Z,45.44
2019-03-03T01:33:07.734Z,45.43
2019-03-03T01:35:39.869Z,45.46
2019-03-03T01:38:11.993Z,45.47
2019-03-03T01:40:44.128Z,45.46
2019-03-03T01:43:16.260Z,45.51
2019-03-03T01:45:48.382Z,45.57
2019-03-03T01:48:20.534Z,45.58
2019-03-03T01:50:52.668Z,45.63
2019-03-03T01:53:25.769Z,45.60
2019-03-03T01:55:57.903Z,45.70
2019-03-03T01:58:30.027Z,45.62
2019-03-03T02:01:02.174Z,45.65
2019-03-03T02:03:34.306Z,45.75
2019-03-03T02:06:06.431Z,45.79
2019-03-03T02:08:38.584Z,45.84
2019-03-03T02:11:10.706Z,45.90
2019-03-03T02:13:42.828Z,45.86
2019-03-03T02:16:14.981Z,45.93
2019-03-03T02:18:47.110Z,46.00
2019-03-03T02:21:19.238Z,46.00
2019-03-03T02:23:51.378Z,46.01
2019-03-03T02:26:23.514Z,46.07
2019-03-03T02:28:55.633Z,46.09
2019-03-03T02:31:27.777Z,46.08
2019-03-03T02:33:59.905Z,46.12
2019-03-03T02:36:32.026Z,46.19
2019-03-03T02:39:04.191Z,46.24
2019-03-03T02:41:37.924Z,46.28
2019-03-03T02:44:10.071Z,46.29
2019-03-03T02:46:42.206Z,46.33
2019-03-03T02:49:14.368Z,46.36
2019-03-03T02:51:46.519Z,46.36
2019-03-03T02:54:19.716Z,46.50
2019-03-03T02:56:51.861Z,46.48
2019-03-03T02:59:23.988Z,46.53
2019-03-03T03:01:56.111Z,46.53
2019-03-03T03:04:28.253Z,46.59
2019-03-03T03:07:00.384Z,46.51
2019-03-03T03:09:32.502Z,46.61
2019-03-03T03:12:04.655Z,46.62
2019-03-03T03:14:36.787Z,46.64
2019-03-03T03:17:08.938Z,46.78
2019-03-03T03:19:41.363Z,46.79
2019-03-03T03:22:13.491Z,46.75
2019-03-03T03:24:45.646Z,46.81
2019-03-03T03:27:17.778Z,46.89
2019-03-03T03:29:49.902Z,46.88
2019-03-03T03:32:22.116Z,46.88
2019-03-03T03:34:54.253Z,46.94
2019-03-03T03:37:26.374Z,46.91
2019-03-03T03:39:58.501Z,46.94
2019-03-03T03:42:30.644Z,47.00
2019-03-03T03:45:02.779Z,47.01
2019-03-03T03:47:36.217Z,47.03
2019-03-03T03:50:08.339Z,47.05
2019-03-03T03:52:40.472Z,47.12
2019-03-03T03:55:12.639Z,47.04
2019-03-03T03:57:44.774Z,47.03
2019-03-03T04:00:16.897Z,47.08
2019-03-03T04:02:51.512Z,47.12
2019-03-03T04:05:23.643Z,47.22
2019-03-03T04:07:55.777Z,47.20
2019-03-03T04:10:27.912Z,47.25
2019-03-03T04:13:00.053Z,47.30
2019-03-03T04:15:32.178Z,47.29
2019-03-03T04:18:04.328Z,47.37
2019-03-03T04:20:36.443Z,47.37
2019-03-03T04:23:08.581Z,47.40
2019-03-03T04:25:40.733Z,47.46
2019-03-03T04:28:12.863Z,47.49
2019-03-03T04:30:44.988Z,47.49
2019-03-03T04:33:17.150Z,47.53
2019-03-03T04:35:49.277Z,47.57
2019-03-03T04:38:21.405Z,47.61
2019-03-03T04:40:53.551Z,47.65
2019-03-03T04:43:25.673Z,47.67
2019-03-03T04:45:58.768Z,47.74
2019-03-03T04:48:31.895Z,47.74
2019-03-03T04:51:04.024Z,47.75
2019-03-03T04:53:36.152Z,47.78
2019-03-03T04:56:08.315Z,47.81
2019-03-03T04:58:40.429Z,47.78
2019-03-03T05:01:12.565Z,47.82
2019-03-03T05:03:44.699Z,47.84
2019-03-03T05:06:16.829Z,47.90
2019-03-03T05:08:50.057Z,47.92
2019-03-03T05:11:22.171Z,47.94
2019-03-03T05:13:54.305Z,47.92
2019-03-03T05:16:26.461Z,48.00
2019-03-03T05:18:58.590Z,48.01
2019-03-03T05:21:30.713Z,48.01
2019-03-03T05:24:02.882Z,48.02
2019-03-03T05:26:35.008Z,48.06
2019-03-03T05:29:07.142Z,48.12
2019-03-03T05:31:39.290Z,48.15
2019-03-03T05:34:11.420Z,48.24
2019-03-03T05:36:43.551Z,48.26
2019-03-03T05:39:15.688Z,48.38
2019-03-03T05:41:47.821Z,48.51
2019-03-03T05:44:19.970Z,48.41
2019-03-03T05:46:52.094Z,48.07
2019-03-03T05:49:24.226Z,47.67
2019-03-03T05:51:56.374Z,47.21
2019-03-03T05:54:28.501Z,46.71
2019-03-03T05:57:00.634Z,46.35
2019-03-03T05:59:32.779Z,45.97
2019-03-03T06:02:05.873Z,45.68
2019-03-03T06:04:38.000Z,45.38
2019-03-03T06:07:10.140Z,45.13
2019-03-03T06:09:42.284Z,44.89
2019-03-03T06:12:14.412Z,44.73
2019-03-03T06:14:46.565Z,44.48
2019-03-03T06:17:18.694Z,44.30
2019-03-03T06:19:50.820Z,44.12
2019-03-03T06:22:22.956Z,43.99
2019-03-03T06:24:55.090Z,43.83
2019-03-03T06:27:27.230Z,43.73
2019-03-03T06:29:59.363Z,43.55
2019-03-03T06:32:31.502Z,43.40
2019-03-03T06:35:03.631Z,43.31
2019-03-03T06:37:35.779Z,43.20
2019-03-03T06:40:07.905Z,43.03
2019-03-03T06:42:40.033Z,42.91
2019-03-03T06:45:12.180Z,42.78
2019-03-03T06:47:44.305Z,42.65
2019-03-03T06:50:16.448Z,42.53
2019-03-03T06:52:48.604Z,42.25
2019-03-03T06:55:20.732Z,42.51
2019-03-03T06:57:52.862Z,42.33
2019-03-03T07:00:25.022Z,42.09
2019-03-03T07:02:57.137Z,41.85
2019-03-03T07:05:29.268Z,42.09
2019-03-03T07:08:01.431Z,41.92
2019-03-03T07:10:33.551Z,41.96
2019-03-03T07:13:05.680Z,41.75
2019-03-03T07:15:37.826Z,41.66
2019-03-03T07:18:10.341Z,41.47
2019-03-03T07:20:42.554Z,41.60
2019-03-03T07:23:15.037Z,41.46
2019-03-03T07:25:47.172Z,41.47
2019-03-03T07:28:19.301Z,41.47
2019-03-03T07:30:51.457Z,41.49
2019-03-03T07:33:23.581Z,41.46
2019-03-03T07:35:55.718Z,41.36
2019-03-03T07:38:27.858Z,41.33
2019-03-03T07:40:59.996Z,41.25
2019-03-03T07:43:35.329Z,41.17
2019-03-03T07:46:11.790Z,41.09
2019-03-03T07:48:43.890Z,41.08
2019-03-03T07:51:16.029Z,41.00
2019-03-03T07:53:48.162Z,40.96
2019-03-03T07:56:20.286Z,40.94
2019-03-03T07:58:52.432Z,40.96
2019-03-03T08:01:24.551Z,40.92
2019-03-03T08:03:56.676Z,41.01
2019-03-03T08:06:28.819Z,41.01
2019-03-03T08:09:00.944Z,41.18
2019-03-03T08:11:34.719Z,41.28
2019-03-03T08:14:06.841Z,41.36
2019-03-03T08:16:38.966Z,41.39
2019-03-03T08:19:11.106Z,41.43
2019-03-03T08:21:43.234Z,41.37
2019-03-03T08:24:15.361Z,41.30
2019-03-03T08:26:47.504Z,41.22
2019-03-03T08:29:19.626Z,41.12
2019-03-03T08:31:51.894Z,41.08
2019-03-03T08:34:24.042Z,41.00
2019-03-03T08:36:56.176Z,40.92
2019-03-03T08:39:28.302Z,40.94
2019-03-03T08:42:00.445Z,40.88
2019-03-03T08:44:32.570Z,40.92
2019-03-03T08:47:04.693Z,41.01
2019-03-03T12:59:23.232Z,47.89
2019-03-03T13:01:55.356Z,47.72
2019-03-03T13:04:27.484Z,47.73
2019-03-03T13:06:59.633Z,47.75
2019-03-03T13:09:31.794Z,47.78
2019-03-03T13:12:03.925Z,47.73
2019-03-03T13:14:36.068Z,47.65
2019-03-03T13:49:19.193Z,74.82
2019-03-03T13:51:52.393Z,68.19
2019-03-03T13:54:24.522Z,65.72
2019-03-03T13:56:56.652Z,63.07
2019-03-03T13:59:28.779Z,62.08
2019-03-03T14:02:00.932Z,60.87
2019-03-03T14:04:33.073Z,59.50
2019-03-03T14:07:05.201Z,58.38
2019-03-03T14:09:37.331Z,57.58
2019-03-03T14:12:09.465Z,56.85
2019-03-03T14:14:41.596Z,56.25
2019-03-03T14:17:13.733Z,56.39
2019-03-03T14:19:45.865Z,55.52
2019-03-03T14:22:18.002Z,55.00
2019-03-03T14:24:50.126Z,54.98
2019-03-03T14:27:22.261Z,54.70
2019-03-03T14:29:54.395Z,54.33
2019-03-03T14:32:26.518Z,54.20
2019-03-03T14:34:58.662Z,54.09
2019-03-03T14:37:30.806Z,53.89
2019-03-03T14:40:02.938Z,53.77
2019-03-03T14:42:35.449Z,53.20
2019-03-03T14:45:07.578Z,53.19
2019-03-03T14:47:39.716Z,53.63
2019-03-03T14:50:11.844Z,53.51
2019-03-03T14:52:43.967Z,53.57
2019-03-03T14:55:16.099Z,53.57
2019-03-03T14:57:48.241Z,53.46
2019-03-03T15:00:20.401Z,53.84
2019-03-03T15:02:52.526Z,53.75
2019-03-03T15:05:24.679Z,53.56
2019-03-03T15:07:56.827Z,53.57
2019-03-03T15:10:28.955Z,53.68
2019-03-03T15:13:01.089Z,53.69
2019-03-03T15:15:34.288Z,53.57
2019-03-03T15:18:06.427Z,53.86
2019-03-03T15:20:38.557Z,53.95
2019-03-03T15:23:10.705Z,54.13
2019-03-03T15:25:42.838Z,54.21
2019-03-03T15:28:15.937Z,54.37
2019-03-03T15:30:48.072Z,54.47
2019-03-03T15:33:20.203Z,54.60
2019-03-03T15:35:52.336Z,54.78
2019-03-03T15:38:24.471Z,54.86
2019-03-03T15:40:56.602Z,54.82
2019-03-03T15:43:28.736Z,54.80
2019-03-03T15:46:00.874Z,55.04
2019-03-03T15:48:33.012Z,55.34
2019-03-03T15:51:05.132Z,55.21
2019-03-03T15:53:37.271Z,55.04
2019-03-03T15:56:09.404Z,54.92
2019-03-03T15:58:41.531Z,54.89
2019-03-03T16:01:13.651Z,54.83
2019-03-03T16:03:45.791Z,54.87
2019-03-03T16:06:18.269Z,55.02
2019-03-03T16:08:50.400Z,54.93
2019-03-03T16:11:22.532Z,55.08
2019-03-03T16:13:54.661Z,55.03
2019-03-03T16:16:26.790Z,55.05
2019-03-03T16:18:58.918Z,55.06
2019-03-03T16:21:31.049Z,55.09
2019-03-03T16:24:03.207Z,54.99
2019-03-03T16:26:35.338Z,54.80
2019-03-03T16:29:08.441Z,54.86
2019-03-03T16:31:40.574Z,55.01
2019-03-03T16:34:12.698Z,55.01
2019-03-03T16:36:44.818Z,55.00
2019-03-03T16:39:16.954Z,55.04
2019-03-03T16:41:49.080Z,55.10
2019-03-03T16:44:21.216Z,55.34
2019-03-03T16:46:53.342Z,55.37
2019-03-03T16:49:25.466Z,55.48
2019-03-03T16:51:57.601Z,55.59
2019-03-03T16:54:29.735Z,55.75
2019-03-03T16:57:01.864Z,55.84
2019-03-03T16:59:34.960Z,55.96
2019-03-03T17:02:07.085Z,56.17
2019-03-03T17:04:39.208Z,56.38
2019-03-03T17:07:11.350Z,56.55
2019-03-03T17:09:43.488Z,56.60
2019-03-03T17:12:15.614Z,56.55
2019-03-03T17:14:47.752Z,56.39
2019-03-03T17:17:20.952Z,56.34
2019-03-03T17:19:53.087Z,56.21
2019-03-03T17:22:25.216Z,56.11
2019-03-03T17:24:57.359Z,55.87
2019-03-03T17:27:29.488Z,55.67
2019-03-03T17:30:01.619Z,55.55
2019-03-03T17:32:35.174Z,55.50
2019-03-03T17:35:07.274Z,55.51
2019-03-03T17:37:40.373Z,55.45
2019-03-03T17:40:12.513Z,55.38
2019-03-03T17:42:44.642Z,55.35
2019-03-03T17:45:16.772Z,55.35
2019-03-03T17:47:48.909Z,55.28
2019-03-03T17:50:21.035Z,55.12
2019-03-03T17:52:53.162Z,55.07
2019-03-03T17:55:25.304Z,55.05
2019-03-03T17:57:57.435Z,55.08
2019-03-03T18:00:29.571Z,54.92
2019-03-03T18:03:01.696Z,54.81
2019-03-03T18:05:33.828Z,54.69
2019-03-03T18:08:05.956Z,54.73
2019-03-03T18:10:38.086Z,54.96
2019-03-03T18:13:10.215Z,54.85
2019-03-03T18:15:42.343Z,54.82
2019-03-03T18:18:14.481Z,54.66
2019-03-03T18:20:46.622Z,54.46
2019-03-03T18:23:18.750Z,54.42
2019-03-03T18:25:50.895Z,54.31
2019-03-03T18:28:24.000Z,54.25
2019-03-03T18:30:56.119Z,54.02
2019-03-03T18:33:28.247Z,54.01
2019-03-03T18:36:00.377Z,53.91
2019-03-03T18:38:33.591Z,53.76
2019-03-03T18:41:05.725Z,53.72
2019-03-03T18:43:37.861Z,53.68
2019-03-03T18:46:09.989Z,53.65
2019-03-03T18:48:42.123Z,53.64
2019-03-03T18:51:14.245Z,53.59
2019-03-03T18:53:46.369Z,53.59
2019-03-03T18:56:18.495Z,53.70
2019-03-03T18:58:50.637Z,53.57
2019-03-03T19:01:22.778Z,53.48
2019-03-03T19:03:54.897Z,53.36
2019-03-03T19:06:27.023Z,53.40
2019-03-03T19:08:59.148Z,53.28
2019-03-03T19:11:31.276Z,53.17
2019-03-03T19:14:03.414Z,53.17
2019-03-03T19:16:35.540Z,53.24
2019-03-03T19:19:07.680Z,53.14
2019-03-03T19:21:39.811Z,53.23
2019-03-03T19:24:11.942Z,53.29
2019-03-03T19:26:44.080Z,53.28
2019-03-03T19:29:16.211Z,53.26
2019-03-03T19:31:48.325Z,53.16
2019-03-03T19:34:20.461Z,53.16
2019-03-03T19:36:52.581Z,53.20
2019-03-03T19:39:24.705Z,53.15
2019-03-03T19:41:56.832Z,53.00
2019-03-03T19:44:29.928Z,53.00
2019-03-03T19:47:02.057Z,53.06
2019-03-03T19:49:34.181Z,53.10
2019-03-03T19:52:06.307Z,53.02
2019-03-03T19:54:38.435Z,52.97
2019-03-03T19:57:10.558Z,52.92
2019-03-03T19:59:42.696Z,52.83
2019-03-03T20:02:14.815Z,52.79
2019-03-03T20:04:46.960Z,52.68
2019-03-03T20:07:19.082Z,52.60
2019-03-03T20:09:51.217Z,52.46
2019-03-03T20:12:23.349Z,52.55
2019-03-03T20:14:55.477Z,52.55
2019-03-03T20:17:27.601Z,52.57
2019-03-03T20:19:59.746Z,52.62
2019-03-03T20:22:31.855Z,52.55
2019-03-03T20:25:03.978Z,52.54
2019-03-03T20:27:37.733Z,52.42
2019-03-03T20:30:09.860Z,52.37
2019-03-03T20:32:42.053Z,52.31
2019-03-03T20:35:14.193Z,52.25
2019-03-03T20:37:46.313Z,52.23
2019-03-03T20:40:18.444Z,52.24
2019-03-03T20:42:50.586Z,52.23
2019-03-03T20:45:22.707Z,52.28
2019-03-03T20:47:54.839Z,52.17
2019-03-03T20:50:28.038Z,52.06
2019-03-03T20:53:00.168Z,51.92
2019-03-03T20:55:32.293Z,51.92
2019-03-03T20:58:06.256Z,51.85
2019-03-03T21:00:38.378Z,51.81
2019-03-03T21:03:10.500Z,51.76
2019-03-03T21:05:42.622Z,51.68
2019-03-03T21:08:14.749Z,51.73
2019-03-03T21:10:46.880Z,51.72
2019-03-03T21:13:19.007Z,51.71
2019-03-03T21:15:51.149Z,51.79
2019-03-03T21:18:23.265Z,51.68
2019-03-03T21:20:55.393Z,51.75
2019-03-03T21:23:28.541Z,51.75
2019-03-03T21:26:00.620Z,51.80
2019-03-03T21:28:32.751Z,51.91
2019-03-03T21:31:04.873Z,51.97
2019-03-03T21:33:37.002Z,51.86
2019-03-03T21:36:09.127Z,51.73
2019-03-03T21:38:41.254Z,51.73
2019-03-03T21:41:13.387Z,51.71
2019-03-03T21:43:45.513Z,51.66
2019-03-03T21:46:17.681Z,51.56
2019-03-03T21:48:49.818Z,51.53
2019-03-03T21:51:21.944Z,51.44
2019-03-03T21:53:54.082Z,51.55
2019-03-03T21:56:26.212Z,51.49
2019-03-03T21:58:59.312Z,51.47
2019-03-03T22:01:31.437Z,51.43
2019-03-03T22:04:03.556Z,51.29
2019-03-03T22:06:35.760Z,51.35
2019-03-03T22:09:07.886Z,51.30
2019-03-03T22:11:41.631Z,51.27
2019-03-03T22:14:13.756Z,51.27
2019-03-03T22:16:45.879Z,51.28
2019-03-03T22:19:18.006Z,51.31
2019-03-03T22:21:50.133Z,51.27
2019-03-03T22:24:22.259Z,51.20
2019-03-03T22:26:54.384Z,51.17
2019-03-03T22:29:26.504Z,51.21
2019-03-03T22:31:58.625Z,51.09
2019-03-03T22:34:31.138Z,51.17
2019-03-03T22:37:03.272Z,51.19
2019-03-03T22:39:35.399Z,51.17
2019-03-03T22:42:07.521Z,51.12
2019-03-03T22:44:39.667Z,51.09
2019-03-03T22:47:11.792Z,51.05
2019-03-03T22:49:43.927Z,51.04
2019-03-03T22:52:16.066Z,51.03
2019-03-03T22:54:48.194Z,50.98
2019-03-03T22:57:20.321Z,50.94
2019-03-03T22:59:52.445Z,50.86
2019-03-03T23:02:24.570Z,50.88
2019-03-03T23:04:56.695Z,50.86
2019-03-03T23:07:28.820Z,50.79
2019-03-03T23:10:00.958Z,50.74
2019-03-03T23:12:33.083Z,50.80
2019-03-03T23:15:05.207Z,50.74
2019-03-03T23:17:37.331Z,50.74
2019-03-03T23:20:09.465Z,50.74
2019-03-03T23:22:41.602Z,50.68
2019-03-03T23:25:13.734Z,50.68
2019-03-03T23:27:47.033Z,50.66
2019-03-03T23:30:19.150Z,50.58
2019-03-03T23:32:51.282Z,50.48
2019-03-03T23:35:23.407Z,50.48
2019-03-03T23:37:55.533Z,50.44
2019-03-03T23:40:27.670Z,50.42
2019-03-03T23:42:59.787Z,50.38
2019-03-03T23:45:31.907Z,50.32
2019-03-03T23:48:04.042Z,50.31
2019-03-03T23:50:36.172Z,50.24
2019-03-03T23:53:08.307Z,50.21
2019-03-03T23:55:40.429Z,50.14
2019-03-03T23:58:12.556Z,50.14
